sensor_id;sensor_type;location;lat;lon;timestamp;temperature;humidity
1948;DHT22;974;52.400;9.818;2023-02-13T00:01:21;7.70;99.90
1948;DHT22;974;52.400;9.818;2023-02-13T00:03:47;7.60;99.90
1948;DHT22;974;52.400;9.818;2023-02-13T00:06:12;7.60;99.90
1948;DHT22;974;52.400;9.818;2023-02-13T00:08:38;7.50;99.90
1948;DHT22;974;52.400;9.818;2023-02-13T00:11:04;7.50;99.90
1948;DHT22;974;52.400;9.818;2023-02-13T00:13:29;7.60;99.90
1948;DHT22;974;52.400;9.818;2023-02-13T00:15:59;7.60;99.90
1948;DHT22;974;52.400;9.818;2023-02-13T00:18:26;7.60;99.90
1948;DHT22;974;52.400;9.818;2023-02-13T00:21:04;7.50;99.90
1948;DHT22;974;52.400;9.818;2023-02-13T00:23:31;7.50;99.90
1948;DHT22;974;52.400;9.818;2023-02-13T00:25:57;7.50;99.90
1948;DHT22;974;52.400;9.818;2023-02-13T00:28:24;7.60;99.90
1948;DHT22;974;52.400;9.818;2023-02-13T00:30:49;7.50;99.90
1948;DHT22;974;52.400;9.818;2023-02-13T00:33:15;7.60;99.90
1948;DHT22;974;52.400;9.818;2023-02-13T00:35:41;7.40;99.90
1948;DHT22;974;52.400;9.818;2023-02-13T00:38:06;7.50;99.90
1948;DHT22;974;52.400;9.818;2023-02-13T00:40:31;7.60;99.90
1948;DHT22;974;52.400;9.818;2023-02-13T00:42:57;7.60;99.90
1948;DHT22;974;52.400;9.818;2023-02-13T00:45:23;7.50;99.90
1948;DHT22;974;52.400;9.818;2023-02-13T00:47:48;7.50;99.90
1948;DHT22;974;52.400;9.818;2023-02-13T00:50:14;7.50;99.90
1948;DHT22;974;52.400;9.818;2023-02-13T00:52:39;7.50;99.90
1948;DHT22;974;52.400;9.818;2023-02-13T00:55:05;7.50;99.90
1948;DHT22;974;52.400;9.818;2023-02-13T00:57:30;7.50;99.90
1948;DHT22;974;52.400;9.818;2023-02-13T00:59:57;7.50;99.90
1948;DHT22;974;52.400;9.818;2023-02-13T01:02:22;7.50;99.90
1948;DHT22;974;52.400;9.818;2023-02-13T01:04:48;7.50;99.90
1948;DHT22;974;52.400;9.818;2023-02-13T01:07:13;7.60;99.90
1948;DHT22;974;52.400;9.818;2023-02-13T01:09:39;7.60;99.90
1948;DHT22;974;52.400;9.818;2023-02-13T01:12:05;7.60;99.90
1948;DHT22;974;52.400;9.818;2023-02-13T01:14:30;7.60;99.90
1948;DHT22;974;52.400;9.818;2023-02-13T01:16:56;7.50;99.90
1948;DHT22;974;52.400;9.818;2023-02-13T01:19:21;7.50;99.90
1948;DHT22;974;52.400;9.818;2023-02-13T01:21:47;7.50;99.90
1948;DHT22;974;52.400;9.818;2023-02-13T01:24:12;7.50;99.90
1948;DHT22;974;52.400;9.818;2023-02-13T01:26:38;7.50;99.90
1948;DHT22;974;52.400;9.818;2023-02-13T01:29:04;7.50;99.90
1948;DHT22;974;52.400;9.818;2023-02-13T01:31:29;7.50;99.90
1948;DHT22;974;52.400;9.818;2023-02-13T01:33:56;7.50;99.90
1948;DHT22;974;52.400;9.818;2023-02-13T01:36:22;7.50;99.90
1948;DHT22;974;52.400;9.818;2023-02-13T01:38:52;7.50;99.90
1948;DHT22;974;52.400;9.818;2023-02-13T01:41:18;7.60;99.90
1948;DHT22;974;52.400;9.818;2023-02-13T01:46:16;7.50;99.90
1948;DHT22;974;52.400;9.818;2023-02-13T01:48:44;7.40;99.90
1948;DHT22;974;52.400;9.818;2023-02-13T01:51:21;7.40;99.90
1948;DHT22;974;52.400;9.818;2023-02-13T01:53:52;7.40;99.90
1948;DHT22;974;52.400;9.818;2023-02-13T01:56:24;7.40;99.90
1948;DHT22;974;52.400;9.818;2023-02-13T01:58:57;7.50;99.90
1948;DHT22;974;52.400;9.818;2023-02-13T02:01:24;7.40;99.90
1948;DHT22;974;52.400;9.818;2023-02-13T02:04:03;7.50;99.90
1948;DHT22;974;52.400;9.818;2023-02-13T02:06:33;7.50;99.90
1948;DHT22;974;52.400;9.818;2023-02-13T02:09:04;7.40;99.90
1948;DHT22;974;52.400;9.818;2023-02-13T02:11:43;7.40;99.90
1948;DHT22;974;52.400;9.818;2023-02-13T02:14:10;7.40;99.90
1948;DHT22;974;52.400;9.818;2023-02-13T02:16:36;7.40;99.90
1948;DHT22;974;52.400;9.818;2023-02-13T02:19:03;7.50;99.90
1948;DHT22;974;52.400;9.818;2023-02-13T02:21:46;7.50;99.90
1948;DHT22;974;52.400;9.818;2023-02-13T02:27:16;7.50;99.90
1948;DHT22;974;52.400;9.818;2023-02-13T02:30:06;7.50;99.90
1948;DHT22;974;52.400;9.818;2023-02-13T02:33:02;7.50;99.90
1948;DHT22;974;52.400;9.818;2023-02-13T02:35:45;7.50;99.90
1948;DHT22;974;52.400;9.818;2023-02-13T02:41:29;7.50;99.90
1948;DHT22;974;52.400;9.818;2023-02-13T02:44:15;7.50;99.90
1948;DHT22;974;52.400;9.818;2023-02-13T02:46:56;7.50;99.90
1948;DHT22;974;52.400;9.818;2023-02-13T02:58:19;7.50;99.90
1948;DHT22;974;52.400;9.818;2023-02-13T03:01:07;7.60;99.90
1948;DHT22;974;52.400;9.818;2023-02-13T03:03:55;7.60;99.90
1948;DHT22;974;52.400;9.818;2023-02-13T03:09:15;7.60;99.90
1948;DHT22;974;52.400;9.818;2023-02-13T03:12:02;7.60;99.90
1948;DHT22;974;52.400;9.818;2023-02-13T03:14:46;7.70;99.90
1948;DHT22;974;52.400;9.818;2023-02-13T03:17:14;7.70;99.90
1948;DHT22;974;52.400;9.818;2023-02-13T03:23:01;7.60;99.90
1948;DHT22;974;52.400;9.818;2023-02-13T03:33:57;7.50;99.90
1948;DHT22;974;52.400;9.818;2023-02-13T03:36:32;7.50;99.90
1948;DHT22;974;52.400;9.818;2023-02-13T03:39:21;7.50;99.90
1948;DHT22;974;52.400;9.818;2023-02-13T03:42:00;7.40;99.90
1948;DHT22;974;52.400;9.818;2023-02-13T03:44:48;7.40;99.90
1948;DHT22;974;52.400;9.818;2023-02-13T03:47:37;7.40;99.90
1948;DHT22;974;52.400;9.818;2023-02-13T03:50:04;7.50;99.90
1948;DHT22;974;52.400;9.818;2023-02-13T03:53:00;7.40;99.90
1948;DHT22;974;52.400;9.818;2023-02-13T03:55:32;7.40;99.90
1948;DHT22;974;52.400;9.818;2023-02-13T03:58:25;7.40;99.90
1948;DHT22;974;52.400;9.818;2023-02-13T04:01:13;7.40;99.90
1948;DHT22;974;52.400;9.818;2023-02-13T04:03:45;7.50;99.90
1948;DHT22;974;52.400;9.818;2023-02-13T04:06:15;7.40;99.90
1948;DHT22;974;52.400;9.818;2023-02-13T04:08:42;7.50;99.90
1948;DHT22;974;52.400;9.818;2023-02-13T04:11:34;7.50;99.90
1948;DHT22;974;52.400;9.818;2023-02-13T04:14:19;7.40;99.90
1948;DHT22;974;52.400;9.818;2023-02-13T04:16:49;7.50;99.90
1948;DHT22;974;52.400;9.818;2023-02-13T04:19:16;7.60;99.90
1948;DHT22;974;52.400;9.818;2023-02-13T04:21:42;7.60;99.90
1948;DHT22;974;52.400;9.818;2023-02-13T04:24:08;7.60;99.90
1948;DHT22;974;52.400;9.818;2023-02-13T04:26:37;7.60;99.90
1948;DHT22;974;52.400;9.818;2023-02-13T04:29:03;7.50;99.90
1948;DHT22;974;52.400;9.818;2023-02-13T04:31:29;7.50;99.90
1948;DHT22;974;52.400;9.818;2023-02-13T04:33:55;7.60;99.90
1948;DHT22;974;52.400;9.818;2023-02-13T04:36:21;7.60;99.90
1948;DHT22;974;52.400;9.818;2023-02-13T04:38:46;7.60;99.90
1948;DHT22;974;52.400;9.818;2023-02-13T04:41:12;7.60;99.90
1948;DHT22;974;52.400;9.818;2023-02-13T04:43:38;7.70;99.90
1948;DHT22;974;52.400;9.818;2023-02-13T04:46:03;7.70;99.90
1948;DHT22;974;52.400;9.818;2023-02-13T04:48:29;7.70;99.90
1948;DHT22;974;52.400;9.818;2023-02-13T04:50:55;7.70;99.90
1948;DHT22;974;52.400;9.818;2023-02-13T04:53:20;7.70;99.90
1948;DHT22;974;52.400;9.818;2023-02-13T04:55:45;7.60;99.90
1948;DHT22;974;52.400;9.818;2023-02-13T04:58:11;7.70;99.90
1948;DHT22;974;52.400;9.818;2023-02-13T05:00:36;7.60;99.90
1948;DHT22;974;52.400;9.818;2023-02-13T05:03:07;7.70;99.90
1948;DHT22;974;52.400;9.818;2023-02-13T05:05:34;7.70;99.90
1948;DHT22;974;52.400;9.818;2023-02-13T05:07:59;7.70;99.90
1948;DHT22;974;52.400;9.818;2023-02-13T05:10:26;7.70;99.90
1948;DHT22;974;52.400;9.818;2023-02-13T05:12:51;7.60;99.90
1948;DHT22;974;52.400;9.818;2023-02-13T05:15:17;7.70;99.90
1948;DHT22;974;52.400;9.818;2023-02-13T05:17:43;7.70;99.90
1948;DHT22;974;52.400;9.818;2023-02-13T05:20:09;7.70;99.90
1948;DHT22;974;52.400;9.818;2023-02-13T05:22:35;7.70;99.90
1948;DHT22;974;52.400;9.818;2023-02-13T05:25:19;7.70;99.90
1948;DHT22;974;52.400;9.818;2023-02-13T05:27:45;7.70;99.90
1948;DHT22;974;52.400;9.818;2023-02-13T05:30:11;7.70;99.90
1948;DHT22;974;52.400;9.818;2023-02-13T05:32:37;7.70;99.90
1948;DHT22;974;52.400;9.818;2023-02-13T05:35:03;7.70;99.90
1948;DHT22;974;52.400;9.818;2023-02-13T05:37:29;7.70;99.90
1948;DHT22;974;52.400;9.818;2023-02-13T05:39:54;7.80;99.90
1948;DHT22;974;52.400;9.818;2023-02-13T05:42:20;7.80;99.90
1948;DHT22;974;52.400;9.818;2023-02-13T05:44:45;7.80;99.90
1948;DHT22;974;52.400;9.818;2023-02-13T05:47:11;7.80;99.90
1948;DHT22;974;52.400;9.818;2023-02-13T05:49:36;7.70;99.90
1948;DHT22;974;52.400;9.818;2023-02-13T05:52:02;7.80;99.90
1948;DHT22;974;52.400;9.818;2023-02-13T05:54:27;7.80;99.90
1948;DHT22;974;52.400;9.818;2023-02-13T05:56:52;7.80;99.90
1948;DHT22;974;52.400;9.818;2023-02-13T05:59:18;7.70;99.90
1948;DHT22;974;52.400;9.818;2023-02-13T06:01:44;7.70;99.90
1948;DHT22;974;52.400;9.818;2023-02-13T06:04:09;7.80;99.90
1948;DHT22;974;52.400;9.818;2023-02-13T06:06:34;7.70;99.90
1948;DHT22;974;52.400;9.818;2023-02-13T06:09:00;7.80;99.90
1948;DHT22;974;52.400;9.818;2023-02-13T06:11:25;7.80;99.90
1948;DHT22;974;52.400;9.818;2023-02-13T06:13:51;7.70;99.90
1948;DHT22;974;52.400;9.818;2023-02-13T06:16:16;7.80;99.90
1948;DHT22;974;52.400;9.818;2023-02-13T06:18:42;7.80;99.90
1948;DHT22;974;52.400;9.818;2023-02-13T06:21:08;7.80;99.90
1948;DHT22;974;52.400;9.818;2023-02-13T06:23:34;7.70;99.90
1948;DHT22;974;52.400;9.818;2023-02-13T06:26:03;7.70;99.90
1948;DHT22;974;52.400;9.818;2023-02-13T06:28:29;7.80;99.90
1948;DHT22;974;52.400;9.818;2023-02-13T06:30:55;7.80;99.90
1948;DHT22;974;52.400;9.818;2023-02-13T06:33:21;7.70;99.90
1948;DHT22;974;52.400;9.818;2023-02-13T06:35:46;7.70;99.90
1948;DHT22;974;52.400;9.818;2023-02-13T06:38:11;7.80;99.90
1948;DHT22;974;52.400;9.818;2023-02-13T06:40:37;7.70;99.90
1948;DHT22;974;52.400;9.818;2023-02-13T06:43:02;7.80;99.90
1948;DHT22;974;52.400;9.818;2023-02-13T06:45:28;7.80;99.90
1948;DHT22;974;52.400;9.818;2023-02-13T06:47:53;7.80;99.90
1948;DHT22;974;52.400;9.818;2023-02-13T06:50:19;7.80;99.90
1948;DHT22;974;52.400;9.818;2023-02-13T06:52:49;7.70;99.90
1948;DHT22;974;52.400;9.818;2023-02-13T06:55:15;7.70;99.90
1948;DHT22;974;52.400;9.818;2023-02-13T06:57:42;7.80;99.90
1948;DHT22;974;52.400;9.818;2023-02-13T07:00:09;7.80;99.90
1948;DHT22;974;52.400;9.818;2023-02-13T07:02:38;7.70;99.90
1948;DHT22;974;52.400;9.818;2023-02-13T07:05:03;7.70;99.90
1948;DHT22;974;52.400;9.818;2023-02-13T07:07:35;7.80;99.90
1948;DHT22;974;52.400;9.818;2023-02-13T07:10:02;7.80;99.90
1948;DHT22;974;52.400;9.818;2023-02-13T07:12:28;7.80;99.90
1948;DHT22;974;52.400;9.818;2023-02-13T07:14:53;7.80;99.90
1948;DHT22;974;52.400;9.818;2023-02-13T07:17:19;7.80;99.90
1948;DHT22;974;52.400;9.818;2023-02-13T07:19:44;7.80;99.90
1948;DHT22;974;52.400;9.818;2023-02-13T07:22:10;7.80;99.90
1948;DHT22;974;52.400;9.818;2023-02-13T07:24:35;7.90;99.90
1948;DHT22;974;52.400;9.818;2023-02-13T07:27:03;7.90;99.90
1948;DHT22;974;52.400;9.818;2023-02-13T07:29:28;7.90;99.90
1948;DHT22;974;52.400;9.818;2023-02-13T07:31:54;8.00;99.90
1948;DHT22;974;52.400;9.818;2023-02-13T07:34:19;7.80;99.90
1948;DHT22;974;52.400;9.818;2023-02-13T07:36:45;7.80;99.90
1948;DHT22;974;52.400;9.818;2023-02-13T07:39:10;7.80;99.90
1948;DHT22;974;52.400;9.818;2023-02-13T07:41:36;7.90;99.90
1948;DHT22;974;52.400;9.818;2023-02-13T07:44:01;7.80;99.90
1948;DHT22;974;52.400;9.818;2023-02-13T07:46:27;7.80;99.90
1948;DHT22;974;52.400;9.818;2023-02-13T07:48:52;7.80;99.90
1948;DHT22;974;52.400;9.818;2023-02-13T07:51:18;7.70;99.90
1948;DHT22;974;52.400;9.818;2023-02-13T07:53:44;7.90;99.90
1948;DHT22;974;52.400;9.818;2023-02-13T07:56:09;7.90;99.90
1948;DHT22;974;52.400;9.818;2023-02-13T07:58:36;7.90;99.90
1948;DHT22;974;52.400;9.818;2023-02-13T08:01:09;7.90;99.90
1948;DHT22;974;52.400;9.818;2023-02-13T08:03:35;7.90;99.90
1948;DHT22;974;52.400;9.818;2023-02-13T08:06:02;7.90;99.90
1948;DHT22;974;52.400;9.818;2023-02-13T08:08:27;8.00;99.90
1948;DHT22;974;52.400;9.818;2023-02-13T08:10:53;8.00;99.90
1948;DHT22;974;52.400;9.818;2023-02-13T08:13:38;7.90;99.90
1948;DHT22;974;52.400;9.818;2023-02-13T08:16:04;7.90;99.90
1948;DHT22;974;52.400;9.818;2023-02-13T08:18:29;8.00;99.90
1948;DHT22;974;52.400;9.818;2023-02-13T08:20:54;8.00;99.90
1948;DHT22;974;52.400;9.818;2023-02-13T08:23:20;8.00;99.90
1948;DHT22;974;52.400;9.818;2023-02-13T08:25:45;7.90;99.90
1948;DHT22;974;52.400;9.818;2023-02-13T08:28:13;8.10;99.90
1948;DHT22;974;52.400;9.818;2023-02-13T08:30:39;8.00;99.90
1948;DHT22;974;52.400;9.818;2023-02-13T08:33:04;8.00;99.90
1948;DHT22;974;52.400;9.818;2023-02-13T08:35:30;8.10;99.90
1948;DHT22;974;52.400;9.818;2023-02-13T08:37:56;8.10;99.90
1948;DHT22;974;52.400;9.818;2023-02-13T08:40:22;8.10;99.90
1948;DHT22;974;52.400;9.818;2023-02-13T08:42:47;8.20;99.90
1948;DHT22;974;52.400;9.818;2023-02-13T08:45:13;8.20;99.90
1948;DHT22;974;52.400;9.818;2023-02-13T08:47:38;8.20;99.90
1948;DHT22;974;52.400;9.818;2023-02-13T08:50:05;8.30;99.90
1948;DHT22;974;52.400;9.818;2023-02-13T08:52:30;8.30;99.90
1948;DHT22;974;52.400;9.818;2023-02-13T08:54:56;8.30;99.90
1948;DHT22;974;52.400;9.818;2023-02-13T08:57:21;8.30;99.90
1948;DHT22;974;52.400;9.818;2023-02-13T08:59:47;8.30;99.90
1948;DHT22;974;52.400;9.818;2023-02-13T09:02:12;8.30;99.90
1948;DHT22;974;52.400;9.818;2023-02-13T09:04:39;8.30;99.90
1948;DHT22;974;52.400;9.818;2023-02-13T09:07:04;8.40;99.90
1948;DHT22;974;52.400;9.818;2023-02-13T09:09:30;8.30;99.90
1948;DHT22;974;52.400;9.818;2023-02-13T09:11:55;8.40;99.90
1948;DHT22;974;52.400;9.818;2023-02-13T09:14:23;8.40;99.90
1948;DHT22;974;52.400;9.818;2023-02-13T09:16:48;8.30;99.90
1948;DHT22;974;52.400;9.818;2023-02-13T09:19:14;8.40;99.90
1948;DHT22;974;52.400;9.818;2023-02-13T09:21:39;8.50;99.90
1948;DHT22;974;52.400;9.818;2023-02-13T09:24:09;8.50;99.90
1948;DHT22;974;52.400;9.818;2023-02-13T09:26:34;8.50;99.90
1948;DHT22;974;52.400;9.818;2023-02-13T09:29:00;8.60;99.90
1948;DHT22;974;52.400;9.818;2023-02-13T09:31:26;8.50;99.90
1948;DHT22;974;52.400;9.818;2023-02-13T09:33:51;8.50;99.90
1948;DHT22;974;52.400;9.818;2023-02-13T09:36:19;8.60;99.90
1948;DHT22;974;52.400;9.818;2023-02-13T09:38:47;8.50;99.90
1948;DHT22;974;52.400;9.818;2023-02-13T09:41:24;8.60;99.90
1948;DHT22;974;52.400;9.818;2023-02-13T09:47:06;8.70;99.90
1948;DHT22;974;52.400;9.818;2023-02-13T09:49:39;8.70;99.90
1948;DHT22;974;52.400;9.818;2023-02-13T09:52:08;8.70;99.90
1948;DHT22;974;52.400;9.818;2023-02-13T09:54:34;8.80;99.90
1948;DHT22;974;52.400;9.818;2023-02-13T09:57:48;8.80;99.90
1948;DHT22;974;52.400;9.818;2023-02-13T09:59:55;8.80;99.90
1948;DHT22;974;52.400;9.818;2023-02-13T10:05:18;8.90;99.90
1948;DHT22;974;52.400;9.818;2023-02-13T10:07:55;8.90;99.90
1948;DHT22;974;52.400;9.818;2023-02-13T10:10:40;9.00;99.90
1948;DHT22;974;52.400;9.818;2023-02-13T10:18:56;9.00;99.90
1948;DHT22;974;52.400;9.818;2023-02-13T10:21:29;9.00;99.90
1948;DHT22;974;52.400;9.818;2023-02-13T10:24:10;9.00;99.90
1948;DHT22;974;52.400;9.818;2023-02-13T10:26:39;9.10;99.90
1948;DHT22;974;52.400;9.818;2023-02-13T10:29:21;9.10;99.90
1948;DHT22;974;52.400;9.818;2023-02-13T10:32:13;9.10;99.90
1948;DHT22;974;52.400;9.818;2023-02-13T10:34:43;9.10;99.90
1948;DHT22;974;52.400;9.818;2023-02-13T10:37:16;9.20;99.90
1948;DHT22;974;52.400;9.818;2023-02-13T10:39:44;9.20;99.90
1948;DHT22;974;52.400;9.818;2023-02-13T10:42:24;9.20;99.90
1948;DHT22;974;52.400;9.818;2023-02-13T10:45:02;9.30;99.90
1948;DHT22;974;52.400;9.818;2023-02-13T10:48:03;9.30;99.90
1948;DHT22;974;52.400;9.818;2023-02-13T10:56:33;9.30;99.90
1948;DHT22;974;52.400;9.818;2023-02-13T11:01:55;9.40;99.90
1948;DHT22;974;52.400;9.818;2023-02-13T11:04:22;9.40;99.90
1948;DHT22;974;52.400;9.818;2023-02-13T11:07:02;9.40;99.90
1948;DHT22;974;52.400;9.818;2023-02-13T11:09:30;9.40;99.90
1948;DHT22;974;52.400;9.818;2023-02-13T11:11:58;9.50;99.90
1948;DHT22;974;52.400;9.818;2023-02-13T11:14:25;9.50;99.90
1948;DHT22;974;52.400;9.818;2023-02-13T11:16:59;9.50;99.90
1948;DHT22;974;52.400;9.818;2023-02-13T11:19:34;9.40;99.90
1948;DHT22;974;52.400;9.818;2023-02-13T11:22:09;9.50;99.90
1948;DHT22;974;52.400;9.818;2023-02-13T11:24:36;9.60;99.90
1948;DHT22;974;52.400;9.818;2023-02-13T11:27:06;9.60;99.90
1948;DHT22;974;52.400;9.818;2023-02-13T11:29:51;9.70;99.90
1948;DHT22;974;52.400;9.818;2023-02-13T11:32:20;9.70;99.90
1948;DHT22;974;52.400;9.818;2023-02-13T11:34:47;9.50;99.90
1948;DHT22;974;52.400;9.818;2023-02-13T11:39:41;9.70;99.90
1948;DHT22;974;52.400;9.818;2023-02-13T11:42:13;9.80;99.90
1948;DHT22;974;52.400;9.818;2023-02-13T11:44:40;9.80;99.90
1948;DHT22;974;52.400;9.818;2023-02-13T11:47:05;9.90;99.90
1948;DHT22;974;52.400;9.818;2023-02-13T11:49:36;10.00;99.90
1948;DHT22;974;52.400;9.818;2023-02-13T11:52:06;10.00;99.90
1948;DHT22;974;52.400;9.818;2023-02-13T11:54:41;10.10;99.90
1948;DHT22;974;52.400;9.818;2023-02-13T11:57:32;10.10;99.90
1948;DHT22;974;52.400;9.818;2023-02-13T11:59:59;10.10;99.90
1948;DHT22;974;52.400;9.818;2023-02-13T12:02:29;10.10;99.90
1948;DHT22;974;52.400;9.818;2023-02-13T12:05:19;10.10;99.90
1948;DHT22;974;52.400;9.818;2023-02-13T12:07:45;10.10;99.90
1948;DHT22;974;52.400;9.818;2023-02-13T12:15:33;10.20;99.90
1948;DHT22;974;52.400;9.818;2023-02-13T12:18:15;10.20;99.90
1948;DHT22;974;52.400;9.818;2023-02-13T12:20:56;10.20;99.90
1948;DHT22;974;52.400;9.818;2023-02-13T12:23:47;10.20;99.90
1948;DHT22;974;52.400;9.818;2023-02-13T12:26:29;10.20;99.90
1948;DHT22;974;52.400;9.818;2023-02-13T12:31:52;10.10;99.90
1948;DHT22;974;52.400;9.818;2023-02-13T12:34:51;10.10;99.90
1948;DHT22;974;52.400;9.818;2023-02-13T12:37:35;10.10;99.90
1948;DHT22;974;52.400;9.818;2023-02-13T12:40:29;10.10;99.90
1948;DHT22;974;52.400;9.818;2023-02-13T12:43:45;10.00;99.90
1948;DHT22;974;52.400;9.818;2023-02-13T12:46:38;10.10;99.90
1948;DHT22;974;52.400;9.818;2023-02-13T12:49:40;10.10;99.90
1948;DHT22;974;52.400;9.818;2023-02-13T12:52:35;10.00;99.90
1948;DHT22;974;52.400;9.818;2023-02-13T13:00:42;9.90;99.90
1948;DHT22;974;52.400;9.818;2023-02-13T13:06:07;9.90;99.90
1948;DHT22;974;52.400;9.818;2023-02-13T13:16:44;9.80;99.90
1948;DHT22;974;52.400;9.818;2023-02-13T13:19:28;9.80;99.90
1948;DHT22;974;52.400;9.818;2023-02-13T13:22:04;9.70;99.90
1948;DHT22;974;52.400;9.818;2023-02-13T13:24:44;9.80;99.90
1948;DHT22;974;52.400;9.818;2023-02-13T13:27:23;9.70;99.90
1948;DHT22;974;52.400;9.818;2023-02-13T13:32:58;9.70;99.90
1948;DHT22;974;52.400;9.818;2023-02-13T13:35:24;9.70;99.90
1948;DHT22;974;52.400;9.818;2023-02-13T13:37:55;9.70;99.90
1948;DHT22;974;52.400;9.818;2023-02-13T13:40:38;9.60;99.90
1948;DHT22;974;52.400;9.818;2023-02-13T13:43:29;9.70;99.90
1948;DHT22;974;52.400;9.818;2023-02-13T13:46:02;9.70;99.90
1948;DHT22;974;52.400;9.818;2023-02-13T13:48:49;9.60;99.90
1948;DHT22;974;52.400;9.818;2023-02-13T13:51:17;9.70;99.90
1948;DHT22;974;52.400;9.818;2023-02-13T14:05:21;9.70;99.90
1948;DHT22;974;52.400;9.818;2023-02-13T14:07:50;9.70;99.90
1948;DHT22;974;52.400;9.818;2023-02-13T14:23:34;9.70;99.90
1948;DHT22;974;52.400;9.818;2023-02-13T14:26:18;9.70;99.90
1948;DHT22;974;52.400;9.818;2023-02-13T14:36:48;9.70;99.90
1948;DHT22;974;52.400;9.818;2023-02-13T14:39:29;9.60;99.90
1948;DHT22;974;52.400;9.818;2023-02-13T14:41:58;9.70;99.90
1948;DHT22;974;52.400;9.818;2023-02-13T14:44:46;9.60;99.90
1948;DHT22;974;52.400;9.818;2023-02-13T14:47:18;9.60;99.90
1948;DHT22;974;52.400;9.818;2023-02-13T14:49:46;9.50;99.90
1948;DHT22;974;52.400;9.818;2023-02-13T14:54:45;9.50;99.90
1948;DHT22;974;52.400;9.818;2023-02-13T14:57:28;9.40;99.90
1948;DHT22;974;52.400;9.818;2023-02-13T14:59:58;9.40;99.90
1948;DHT22;974;52.400;9.818;2023-02-13T15:02:30;9.50;99.90
1948;DHT22;974;52.400;9.818;2023-02-13T15:05:05;9.40;99.90
1948;DHT22;974;52.400;9.818;2023-02-13T15:07:34;9.40;99.90
1948;DHT22;974;52.400;9.818;2023-02-13T15:10:05;9.40;99.90
1948;DHT22;974;52.400;9.818;2023-02-13T15:12:35;9.40;99.90
1948;DHT22;974;52.400;9.818;2023-02-13T15:15:04;9.40;99.90
1948;DHT22;974;52.400;9.818;2023-02-13T15:17:42;9.40;99.90
1948;DHT22;974;52.400;9.818;2023-02-13T15:20:23;9.30;99.90
1948;DHT22;974;52.400;9.818;2023-02-13T15:22:50;9.30;99.90
1948;DHT22;974;52.400;9.818;2023-02-13T15:25:35;9.30;99.90
1948;DHT22;974;52.400;9.818;2023-02-13T15:28:02;9.30;99.90
1948;DHT22;974;52.400;9.818;2023-02-13T15:30:34;9.30;99.90
1948;DHT22;974;52.400;9.818;2023-02-13T15:33:21;9.20;99.90
1948;DHT22;974;52.400;9.818;2023-02-13T15:36:01;9.20;99.90
1948;DHT22;974;52.400;9.818;2023-02-13T15:38:29;9.20;99.90
1948;DHT22;974;52.400;9.818;2023-02-13T15:40:58;9.20;99.90
1948;DHT22;974;52.400;9.818;2023-02-13T15:43:58;9.20;99.90
1948;DHT22;974;52.400;9.818;2023-02-13T15:46:29;9.20;99.90
1948;DHT22;974;52.400;9.818;2023-02-13T15:48:58;9.10;99.90
1948;DHT22;974;52.400;9.818;2023-02-13T15:51:26;9.10;99.90
1948;DHT22;974;52.400;9.818;2023-02-13T15:53:58;9.10;99.90
1948;DHT22;974;52.400;9.818;2023-02-13T15:56:25;9.10;99.90
1948;DHT22;974;52.400;9.818;2023-02-13T15:58:52;9.00;99.90
1948;DHT22;974;52.400;9.818;2023-02-13T16:01:18;9.00;99.90
1948;DHT22;974;52.400;9.818;2023-02-13T16:03:47;9.00;99.90
1948;DHT22;974;52.400;9.818;2023-02-13T16:06:15;9.00;99.90
1948;DHT22;974;52.400;9.818;2023-02-13T16:08:55;9.00;99.90
1948;DHT22;974;52.400;9.818;2023-02-13T16:11:26;8.90;99.90
1948;DHT22;974;52.400;9.818;2023-02-13T16:16:55;8.90;99.90
1948;DHT22;974;52.400;9.818;2023-02-13T16:24:54;8.90;99.90
1948;DHT22;974;52.400;9.818;2023-02-13T16:27:26;8.80;99.90
1948;DHT22;974;52.400;9.818;2023-02-13T16:30:00;8.80;99.90
1948;DHT22;974;52.400;9.818;2023-02-13T16:32:32;8.80;99.90
1948;DHT22;974;52.400;9.818;2023-02-13T16:37:51;8.80;99.90
1948;DHT22;974;52.400;9.818;2023-02-13T16:40:39;8.70;99.90
1948;DHT22;974;52.400;9.818;2023-02-13T16:48:56;8.70;99.90
1948;DHT22;974;52.400;9.818;2023-02-13T16:51:40;8.60;99.90
1948;DHT22;974;52.400;9.818;2023-02-13T17:04:32;8.60;99.90
1948;DHT22;974;52.400;9.818;2023-02-13T17:06:58;8.60;99.90
1948;DHT22;974;52.400;9.818;2023-02-13T17:09:23;8.60;99.90
1948;DHT22;974;52.400;9.818;2023-02-13T17:11:50;8.50;99.90
1948;DHT22;974;52.400;9.818;2023-02-13T17:14:16;8.50;99.90
1948;DHT22;974;52.400;9.818;2023-02-13T17:16:46;8.50;99.90
1948;DHT22;974;52.400;9.818;2023-02-13T17:19:15;8.50;99.90
1948;DHT22;974;52.400;9.818;2023-02-13T17:21:40;8.50;99.90
1948;DHT22;974;52.400;9.818;2023-02-13T17:24:06;8.50;99.90
1948;DHT22;974;52.400;9.818;2023-02-13T17:26:32;8.40;99.90
1948;DHT22;974;52.400;9.818;2023-02-13T17:28:58;8.40;99.90
1948;DHT22;974;52.400;9.818;2023-02-13T17:31:23;8.40;99.90
1948;DHT22;974;52.400;9.818;2023-02-13T17:33:49;8.40;99.90
1948;DHT22;974;52.400;9.818;2023-02-13T17:36:14;8.40;99.90
1948;DHT22;974;52.400;9.818;2023-02-13T17:38:40;8.40;99.90
1948;DHT22;974;52.400;9.818;2023-02-13T17:41:13;8.30;99.90
1948;DHT22;974;52.400;9.818;2023-02-13T17:43:39;8.30;99.90
1948;DHT22;974;52.400;9.818;2023-02-13T17:46:05;8.30;99.90
1948;DHT22;974;52.400;9.818;2023-02-13T17:48:30;8.20;99.90
1948;DHT22;974;52.400;9.818;2023-02-13T17:50:56;8.20;99.90
1948;DHT22;974;52.400;9.818;2023-02-13T17:53:24;8.10;99.90
1948;DHT22;974;52.400;9.818;2023-02-13T17:55:50;8.00;99.90
1948;DHT22;974;52.400;9.818;2023-02-13T17:58:16;8.00;99.90
1948;DHT22;974;52.400;9.818;2023-02-13T18:00:41;7.90;99.90
1948;DHT22;974;52.400;9.818;2023-02-13T18:03:07;7.90;99.90
1948;DHT22;974;52.400;9.818;2023-02-13T18:05:32;7.80;99.90
1948;DHT22;974;52.400;9.818;2023-02-13T18:07:58;7.80;99.90
1948;DHT22;974;52.400;9.818;2023-02-13T18:10:28;7.70;99.90
1948;DHT22;974;52.400;9.818;2023-02-13T18:12:55;7.60;99.90
1948;DHT22;974;52.400;9.818;2023-02-13T18:15:22;7.60;99.90
1948;DHT22;974;52.400;9.818;2023-02-13T18:17:48;7.60;99.90
1948;DHT22;974;52.400;9.818;2023-02-13T18:20:17;7.60;99.90
1948;DHT22;974;52.400;9.818;2023-02-13T18:22:43;7.50;99.90
1948;DHT22;974;52.400;9.818;2023-02-13T18:25:10;7.50;99.90
1948;DHT22;974;52.400;9.818;2023-02-13T18:27:35;7.40;99.90
1948;DHT22;974;52.400;9.818;2023-02-13T18:30:01;7.40;99.90
1948;DHT22;974;52.400;9.818;2023-02-13T18:32:26;7.30;99.90
1948;DHT22;974;52.400;9.818;2023-02-13T18:34:52;7.30;99.90
1948;DHT22;974;52.400;9.818;2023-02-13T18:37:18;7.20;99.90
1948;DHT22;974;52.400;9.818;2023-02-13T18:39:43;7.20;99.90
1948;DHT22;974;52.400;9.818;2023-02-13T18:42:09;7.20;99.90
1948;DHT22;974;52.400;9.818;2023-02-13T18:44:37;7.10;99.90
1948;DHT22;974;52.400;9.818;2023-02-13T18:47:03;7.00;99.90
1948;DHT22;974;52.400;9.818;2023-02-13T18:49:28;7.00;99.90
1948;DHT22;974;52.400;9.818;2023-02-13T18:51:53;6.90;99.90
1948;DHT22;974;52.400;9.818;2023-02-13T18:54:19;6.90;99.90
1948;DHT22;974;52.400;9.818;2023-02-13T18:56:45;6.80;99.90
1948;DHT22;974;52.400;9.818;2023-02-13T18:59:11;6.70;99.90
1948;DHT22;974;52.400;9.818;2023-02-13T19:01:37;6.70;99.90
1948;DHT22;974;52.400;9.818;2023-02-13T19:04:03;6.60;99.90
1948;DHT22;974;52.400;9.818;2023-02-13T19:06:29;6.50;99.90
1948;DHT22;974;52.400;9.818;2023-02-13T19:08:55;6.50;99.90
1948;DHT22;974;52.400;9.818;2023-02-13T19:11:22;6.40;99.90
1948;DHT22;974;52.400;9.818;2023-02-13T19:13:56;6.30;99.90
1948;DHT22;974;52.400;9.818;2023-02-13T19:16:23;6.30;99.90
1948;DHT22;974;52.400;9.818;2023-02-13T19:18:52;6.20;99.90
1948;DHT22;974;52.400;9.818;2023-02-13T19:21:19;6.10;99.90